Corona, SD (57227)

10:06 AM CST on March 01, 2015 (GMT -0600)
Linden Beach | Change Station
CLOSE
Current Station
Personal Weather Station
Location: Corona, SD
Elevation: 974 ft
Nearby Weather Stations

Elev 974 ft 45.41 °N, 96.65 °W | Updated 3 seconds ago

Clear
Clear
20.7 °F
Feels Like 13 °F
N
6.0
Wind Variable Wind from SSW
Gusts 7.4 mph

Today
High -- | Low -- °F
--% Chance of Precip.
Yesterday
High -- | Low -- °F
Precip. -- in
7:05 AM 6:13 PM
Waxing Gibbous, 86% visible
Pressure 30.25 in
Visibility 10.0 miles
Clouds Clear
Windchill 13 °F
Dew Point 4 °F
Humidity 49%
Rainfall 0.00 in
Snow Depth Not available.
UV 2 out of 12
Pollen .10 out of 12
Air Quality Not available.
Flu Activity Not available.
METAR KVVV 011554Z AUTO 25011KT 10SM CLR M07/M14 A3025 RMK AO2

More Conditions Fewer Conditions

Pressure 30.25 in
Visibility 10.0 miles
Clouds Clear
Windchill 13 °F
Dew Point 4 °F
Humidity 49%
Rainfall 0.00 in
Snow Depth Not available.
UV 2 out of 12
Pollen .10 out of 12
Air Quality Not available.
Flu Activity Not available.
METAR KVVV 011554Z AUTO 25011KT 10SM CLR M07/M14 A3025 RMK AO2

More Conditions Fewer Conditions

10-Day Weather Forecast

Almanac

Astronomy

Mar. 01, 2015 Rise Set
Actual Time
Civil Twilight
Nautical Twilight
Astronomical Twilight
Moon
Length of Visible Light
Length of Day
Tomorrow will be .
, % of the Moon is Illuminated

Today's Extremes

State Highs State Lows

Community

WunderPhotos

Upload Photos

1,801,440 photos uploaded!

WunderBlogs® & News

Nearby

Air Quality

  Air Quality AQ Index Pollutant
Not available.

Snow Depth

Station Depth Elevation

Earthquake Activity

City Distance Mag. Time & Date
Minimum magnitude displayed is 2.5.

Coastal Water Temperatures

Place Temperature

Nearby Weather Stations